sensor_id;sensor_type;location;lat;lon;timestamp;pressure;altitude;pressure_sealevel;temperature;humidity
61908;BME280;47864;52.526;19.672;2022-08-03T00:00:33;101146.38;;;15.64;100.00
61908;BME280;47864;52.526;19.672;2022-08-03T00:02:35;101155.06;;;15.66;100.00
61908;BME280;47864;52.526;19.672;2022-08-03T00:04:37;101175.28;;;15.76;100.00
61908;BME280;47864;52.526;19.672;2022-08-03T00:06:39;101162.44;;;15.64;100.00
61908;BME280;47864;52.526;19.672;2022-08-03T00:08:41;101177.78;;;15.70;100.00
61908;BME280;47864;52.526;19.672;2022-08-03T00:10:42;101182.31;;;15.61;100.00
61908;BME280;47864;52.526;19.672;2022-08-03T00:12:44;101177.13;;;15.59;100.00
61908;BME280;47864;52.526;19.672;2022-08-03T00:14:46;101177.50;;;15.56;100.00
61908;BME280;47864;52.526;19.672;2022-08-03T00:16:48;101154.75;;;15.28;100.00
61908;BME280;47864;52.526;19.672;2022-08-03T00:18:50;101169.09;;;15.27;100.00
61908;BME280;47864;52.526;19.672;2022-08-03T00:20:52;101163.75;;;15.11;100.00
61908;BME280;47864;52.526;19.672;2022-08-03T00:22:54;101175.44;;;15.26;100.00
61908;BME280;47864;52.526;19.672;2022-08-03T00:24:56;101165.44;;;15.28;100.00
61908;BME280;47864;52.526;19.672;2022-08-03T00:26:58;101170.47;;;15.23;100.00
61908;BME280;47864;52.526;19.672;2022-08-03T00:29:00;101174.13;;;15.30;100.00
61908;BME280;47864;52.526;19.672;2022-08-03T00:31:02;101151.41;;;15.26;100.00
61908;BME280;47864;52.526;19.672;2022-08-03T00:33:04;101169.63;;;15.47;100.00
61908;BME280;47864;52.526;19.672;2022-08-03T00:35:08;101161.75;;;15.29;100.00
61908;BME280;47864;52.526;19.672;2022-08-03T00:37:28;101172.94;;;15.41;100.00
61908;BME280;47864;52.526;19.672;2022-08-03T00:39:42;101163.75;;;15.27;100.00
61908;BME280;47864;52.526;19.672;2022-08-03T00:41:44;101178.97;;;15.43;100.00
61908;BME280;47864;52.526;19.672;2022-08-03T00:43:45;101180.78;;;15.42;100.00
61908;BME280;47864;52.526;19.672;2022-08-03T00:45:47;101180.31;;;15.39;100.00
61908;BME280;47864;52.526;19.672;2022-08-03T00:47:51;101176.13;;;15.36;100.00
61908;BME280;47864;52.526;19.672;2022-08-03T00:49:53;101170.94;;;15.18;100.00
61908;BME280;47864;52.526;19.672;2022-08-03T00:51:55;101178.28;;;15.24;100.00
61908;BME280;47864;52.526;19.672;2022-08-03T00:53:57;101166.59;;;15.17;100.00
61908;BME280;47864;52.526;19.672;2022-08-03T00:55:59;101156.25;;;15.06;100.00
61908;BME280;47864;52.526;19.672;2022-08-03T00:58:02;101182.63;;;15.17;100.00
61908;BME280;47864;52.526;19.672;2022-08-03T01:00:05;101174.44;;;15.11;100.00
61908;BME280;47864;52.526;19.672;2022-08-03T01:02:08;101174.44;;;15.11;100.00
61908;BME280;47864;52.526;19.672;2022-08-03T01:04:10;101176.81;;;15.14;100.00
61908;BME280;47864;52.526;19.672;2022-08-03T01:06:17;101167.94;;;15.05;100.00
61908;BME280;47864;52.526;19.672;2022-08-03T01:08:43;101176.13;;;15.04;100.00
61908;BME280;47864;52.526;19.672;2022-08-03T01:11:07;101147.22;;;14.99;100.00
61908;BME280;47864;52.526;19.672;2022-08-03T01:13:42;101172.63;;;15.11;100.00
61908;BME280;47864;52.526;19.672;2022-08-03T01:16:12;101164.06;;;15.00;100.00
61908;BME280;47864;52.526;19.672;2022-08-03T01:21:08;101167.56;;;14.76;100.00
61908;BME280;47864;52.526;19.672;2022-08-03T01:23:36;101163.41;;;14.81;100.00
61908;BME280;47864;52.526;19.672;2022-08-03T01:25:50;101166.09;;;14.81;100.00
61908;BME280;47864;52.526;19.672;2022-08-03T01:30:02;101171.75;;;14.78;100.00
61908;BME280;47864;52.526;19.672;2022-08-03T01:32:13;101141.66;;;14.60;100.00
61908;BME280;47864;52.526;19.672;2022-08-03T01:34:47;101171.19;;;14.67;100.00
61908;BME280;47864;52.526;19.672;2022-08-03T01:36:52;101173.25;;;14.73;100.00
61908;BME280;47864;52.526;19.672;2022-08-03T01:39:00;101159.03;;;14.64;100.00
61908;BME280;47864;52.526;19.672;2022-08-03T01:41:05;101146.00;;;14.61;100.00
61908;BME280;47864;52.526;19.672;2022-08-03T01:43:11;101164.22;;;14.74;100.00
61908;BME280;47864;52.526;19.672;2022-08-03T01:45:36;101171.88;;;14.69;100.00
61908;BME280;47864;52.526;19.672;2022-08-03T01:47:40;101168.22;;;14.70;100.00
61908;BME280;47864;52.526;19.672;2022-08-03T01:49:44;101169.22;;;14.69;100.00
61908;BME280;47864;52.526;19.672;2022-08-03T01:51:47;101153.31;;;14.59;100.00
61908;BME280;47864;52.526;19.672;2022-08-03T01:54:06;101161.19;;;14.61;100.00
61908;BME280;47864;52.526;19.672;2022-08-03T01:56:08;101167.03;;;14.56;100.00
61908;BME280;47864;52.526;19.672;2022-08-03T01:58:12;101163.66;;;14.54;100.00
61908;BME280;47864;52.526;19.672;2022-08-03T02:00:15;101149.31;;;14.47;100.00
61908;BME280;47864;52.526;19.672;2022-08-03T02:02:20;101155.63;;;14.46;100.00
61908;BME280;47864;52.526;19.672;2022-08-03T02:04:36;101138.25;;;14.42;100.00
61908;BME280;47864;52.526;19.672;2022-08-03T02:06:39;101166.69;;;14.59;100.00
61908;BME280;47864;52.526;19.672;2022-08-03T02:09:03;101170.34;;;14.58;100.00
61908;BME280;47864;52.526;19.672;2022-08-03T02:11:06;101162.69;;;14.55;100.00
61908;BME280;47864;52.526;19.672;2022-08-03T02:13:09;101168.34;;;14.60;100.00
61908;BME280;47864;52.526;19.672;2022-08-03T02:15:11;101181.22;;;14.57;100.00
61908;BME280;47864;52.526;19.672;2022-08-03T02:17:15;101174.22;;;14.64;100.00
61908;BME280;47864;52.526;19.672;2022-08-03T02:19:39;101173.56;;;14.70;100.00
61908;BME280;47864;52.526;19.672;2022-08-03T02:21:44;101170.38;;;14.74;100.00
61908;BME280;47864;52.526;19.672;2022-08-03T02:24:02;101136.44;;;14.51;100.00
61908;BME280;47864;52.526;19.672;2022-08-03T02:26:06;101167.03;;;14.56;100.00
61908;BME280;47864;52.526;19.672;2022-08-03T02:28:13;101172.38;;;14.64;100.00
61908;BME280;47864;52.526;19.672;2022-08-03T02:30:17;101149.31;;;14.55;100.00
61908;BME280;47864;52.526;19.672;2022-08-03T02:32:23;101160.00;;;14.55;100.00
61908;BME280;47864;52.526;19.672;2022-08-03T02:34:28;101170.53;;;14.57;100.00
61908;BME280;47864;52.526;19.672;2022-08-03T02:36:35;101165.97;;;14.41;100.00
61908;BME280;47864;52.526;19.672;2022-08-03T02:38:41;101176.03;;;14.55;100.00
61908;BME280;47864;52.526;19.672;2022-08-03T02:40:43;101170.16;;;14.52;100.00
61908;BME280;47864;52.526;19.672;2022-08-03T02:42:48;101176.50;;;14.51;100.00
61908;BME280;47864;52.526;19.672;2022-08-03T02:44:54;101178.16;;;14.43;100.00
61908;BME280;47864;52.526;19.672;2022-08-03T02:47:06;101133.81;;;14.17;100.00
61908;BME280;47864;52.526;19.672;2022-08-03T02:49:11;101178.91;;;14.36;100.00
61908;BME280;47864;52.526;19.672;2022-08-03T02:51:35;101157.69;;;14.26;100.00
61908;BME280;47864;52.526;19.672;2022-08-03T02:53:37;101177.81;;;14.38;100.00
61908;BME280;47864;52.526;19.672;2022-08-03T02:55:41;101179.41;;;14.31;100.00
61908;BME280;47864;52.526;19.672;2022-08-03T02:57:47;101182.88;;;14.24;100.00
61908;BME280;47864;52.526;19.672;2022-08-03T02:59:51;101182.88;;;14.24;100.00
61908;BME280;47864;52.526;19.672;2022-08-03T03:01:53;101171.13;;;14.08;100.00
61908;BME280;47864;52.526;19.672;2022-08-03T03:03:56;101153.81;;;14.13;100.00
61908;BME280;47864;52.526;19.672;2022-08-03T03:05:59;101165.69;;;14.26;100.00
61908;BME280;47864;52.526;19.672;2022-08-03T03:08:07;101160.13;;;14.12;100.00
61908;BME280;47864;52.526;19.672;2022-08-03T03:10:22;101175.16;;;14.13;100.00
61908;BME280;47864;52.526;19.672;2022-08-03T03:12:25;101183.84;;;14.15;100.00
61908;BME280;47864;52.526;19.672;2022-08-03T03:14:28;101158.34;;;14.20;100.00
61908;BME280;47864;52.526;19.672;2022-08-03T03:16:35;101140.13;;;14.07;100.00
61908;BME280;47864;52.526;19.672;2022-08-03T03:18:37;101174.91;;;14.32;100.00
61908;BME280;47864;52.526;19.672;2022-08-03T03:20:40;101173.94;;;14.33;100.00
61908;BME280;47864;52.526;19.672;2022-08-03T03:22:42;101171.91;;;14.35;100.00
61908;BME280;47864;52.526;19.672;2022-08-03T03:24:46;101171.31;;;14.41;100.00
61908;BME280;47864;52.526;19.672;2022-08-03T03:26:48;101176.09;;;14.37;100.00
61908;BME280;47864;52.526;19.672;2022-08-03T03:28:50;101178.22;;;14.34;100.00
61908;BME280;47864;52.526;19.672;2022-08-03T03:30:52;101166.72;;;14.33;100.00
61908;BME280;47864;52.526;19.672;2022-08-03T03:32:56;101153.53;;;14.24;100.00
61908;BME280;47864;52.526;19.672;2022-08-03T03:34:58;101147.66;;;14.20;100.00
61908;BME280;47864;52.526;19.672;2022-08-03T03:37:01;101146.69;;;14.21;100.00
61908;BME280;47864;52.526;19.672;2022-08-03T03:39:02;101146.41;;;14.32;100.00
61908;BME280;47864;52.526;19.672;2022-08-03T03:41:16;101139.84;;;14.27;100.00
61908;BME280;47864;52.526;19.672;2022-08-03T03:43:22;101177.03;;;14.54;100.00
61908;BME280;47864;52.526;19.672;2022-08-03T03:45:25;101172.38;;;14.56;100.00
61908;BME280;47864;52.526;19.672;2022-08-03T03:47:27;101137.56;;;14.32;100.00
61908;BME280;47864;52.526;19.672;2022-08-03T03:49:33;101170.16;;;14.52;100.00
61908;BME280;47864;52.526;19.672;2022-08-03T03:51:35;101159.13;;;14.38;100.00
61908;BME280;47864;52.526;19.672;2022-08-03T03:53:37;101162.97;;;14.44;100.00
61908;BME280;47864;52.526;19.672;2022-08-03T03:55:39;101176.69;;;14.49;100.00
61908;BME280;47864;52.526;19.672;2022-08-03T03:58:02;101173.50;;;14.45;100.00
61908;BME280;47864;52.526;19.672;2022-08-03T04:00:04;101184.34;;;14.52;100.00
61908;BME280;47864;52.526;19.672;2022-08-03T04:02:07;101158.72;;;14.33;100.00
61908;BME280;47864;52.526;19.672;2022-08-03T04:04:09;101184.00;;;14.47;100.00
61908;BME280;47864;52.526;19.672;2022-08-03T04:06:12;101151.69;;;14.24;100.00
61908;BME280;47864;52.526;19.672;2022-08-03T04:08:17;101194.16;;;14.43;100.00
61908;BME280;47864;52.526;19.672;2022-08-03T04:10:21;101193.69;;;14.48;100.00
61908;BME280;47864;52.526;19.672;2022-08-03T04:12:25;101199.91;;;14.57;100.00
61908;BME280;47864;52.526;19.672;2022-08-03T04:14:32;101199.06;;;14.56;100.00
61908;BME280;47864;52.526;19.672;2022-08-03T04:16:37;101178.19;;;14.60;100.00
61908;BME280;47864;52.526;19.672;2022-08-03T04:18:50;101185.06;;;14.70;100.00
61908;BME280;47864;52.526;19.672;2022-08-03T04:20:54;101200.47;;;14.84;100.00
61908;BME280;47864;52.526;19.672;2022-08-03T04:22:57;101185.06;;;14.70;100.00
61908;BME280;47864;52.526;19.672;2022-08-03T04:25:03;101182.69;;;14.59;100.00
61908;BME280;47864;52.526;19.672;2022-08-03T04:27:08;101210.81;;;14.88;100.00
61908;BME280;47864;52.526;19.672;2022-08-03T04:29:12;101180.25;;;14.74;100.00
61908;BME280;47864;52.526;19.672;2022-08-03T04:31:16;101209.50;;;15.08;100.00
61908;BME280;47864;52.526;19.672;2022-08-03T04:33:18;101193.69;;;15.14;100.00
61908;BME280;47864;52.526;19.672;2022-08-03T04:35:24;101210.88;;;15.44;100.00
61908;BME280;47864;52.526;19.672;2022-08-03T04:37:51;101215.56;;;15.67;100.00
61908;BME280;47864;52.526;19.672;2022-08-03T04:39:56;101209.53;;;15.89;100.00
61908;BME280;47864;52.526;19.672;2022-08-03T04:42:03;101212.50;;;16.10;100.00
61908;BME280;47864;52.526;19.672;2022-08-03T04:44:10;101211.28;;;16.21;100.00
61908;BME280;47864;52.526;19.672;2022-08-03T04:46:14;101214.31;;;16.57;100.00
61908;BME280;47864;52.526;19.672;2022-08-03T04:48:16;101207.00;;;16.82;100.00
61908;BME280;47864;52.526;19.672;2022-08-03T04:50:20;101214.56;;;17.09;100.00
61908;BME280;47864;52.526;19.672;2022-08-03T04:52:22;101216.50;;;17.38;100.00
61908;BME280;47864;52.526;19.672;2022-08-03T04:54:24;101216.66;;;17.59;100.00
61908;BME280;47864;52.526;19.672;2022-08-03T04:56:26;101217.75;;;17.87;100.00
61908;BME280;47864;52.526;19.672;2022-08-03T04:58:28;101218.41;;;18.04;100.00
61908;BME280;47864;52.526;19.672;2022-08-03T05:00:30;101226.03;;;18.30;100.00
61908;BME280;47864;52.526;19.672;2022-08-03T05:02:32;101213.03;;;18.48;100.00
61908;BME280;47864;52.526;19.672;2022-08-03T05:04:34;101225.66;;;18.62;100.00
61908;BME280;47864;52.526;19.672;2022-08-03T05:06:36;101226.19;;;18.73;100.00
61908;BME280;47864;52.526;19.672;2022-08-03T05:08:48;101228.47;;;18.90;100.00
61908;BME280;47864;52.526;19.672;2022-08-03T05:10:51;101230.69;;;19.02;100.00
61908;BME280;47864;52.526;19.672;2022-08-03T05:12:53;101236.25;;;19.21;100.00
61908;BME280;47864;52.526;19.672;2022-08-03T05:14:55;101221.28;;;19.33;100.00
61908;BME280;47864;52.526;19.672;2022-08-03T05:16:56;101224.56;;;19.50;100.00
61908;BME280;47864;52.526;19.672;2022-08-03T05:18:58;101230.22;;;19.62;100.00
61908;BME280;47864;52.526;19.672;2022-08-03T05:21:00;101219.31;;;19.70;100.00
61908;BME280;47864;52.526;19.672;2022-08-03T05:23:02;101220.75;;;19.94;100.00
61908;BME280;47864;52.526;19.672;2022-08-03T05:25:04;101217.84;;;20.23;100.00
61908;BME280;47864;52.526;19.672;2022-08-03T05:27:06;101231.91;;;20.53;100.00
61908;BME280;47864;52.526;19.672;2022-08-03T05:29:08;101243.81;;;20.78;100.00
61908;BME280;47864;52.526;19.672;2022-08-03T05:31:09;101241.97;;;20.85;100.00
61908;BME280;47864;52.526;19.672;2022-08-03T05:33:11;101238.03;;;20.81;100.00
61908;BME280;47864;52.526;19.672;2022-08-03T05:35:13;101239.94;;;21.01;100.00
61908;BME280;47864;52.526;19.672;2022-08-03T05:37:35;101233.81;;;21.20;100.00
61908;BME280;47864;52.526;19.672;2022-08-03T05:39:37;101230.22;;;21.13;100.00
61908;BME280;47864;52.526;19.672;2022-08-03T05:41:39;101242.94;;;21.25;100.00
61908;BME280;47864;52.526;19.672;2022-08-03T05:43:41;101228.81;;;21.17;100.00
61908;BME280;47864;52.526;19.672;2022-08-03T05:45:42;101249.41;;;21.38;100.00
61908;BME280;47864;52.526;19.672;2022-08-03T05:47:44;101242.16;;;21.32;100.00
61908;BME280;47864;52.526;19.672;2022-08-03T05:49:48;101221.38;;;21.45;100.00
61908;BME280;47864;52.526;19.672;2022-08-03T05:51:52;101234.25;;;21.50;100.00
61908;BME280;47864;52.526;19.672;2022-08-03T05:54:12;101245.47;;;21.53;100.00
61908;BME280;47864;52.526;19.672;2022-08-03T05:56:14;101232.97;;;21.26;100.00
61908;BME280;47864;52.526;19.672;2022-08-03T05:58:17;101258.78;;;21.55;100.00
61908;BME280;47864;52.526;19.672;2022-08-03T06:00:19;101251.28;;;21.50;100.00
61908;BME280;47864;52.526;19.672;2022-08-03T06:02:22;101258.78;;;21.61;100.00
61908;BME280;47864;52.526;19.672;2022-08-03T06:04:24;101241.91;;;21.33;100.00
61908;BME280;47864;52.526;19.672;2022-08-03T06:06:26;101259.13;;;21.19;100.00
61908;BME280;47864;52.526;19.672;2022-08-03T06:08:33;101247.81;;;20.96;100.00
61908;BME280;47864;52.526;19.672;2022-08-03T06:10:35;101242.69;;;21.07;100.00
61908;BME280;47864;52.526;19.672;2022-08-03T06:12:38;101253.50;;;21.14;100.00
61908;BME280;47864;52.526;19.672;2022-08-03T06:14:40;101261.69;;;20.86;100.00
61908;BME280;47864;52.526;19.672;2022-08-03T06:16:42;101229.66;;;20.63;100.00
61908;BME280;47864;52.526;19.672;2022-08-03T06:18:44;101255.53;;;20.99;100.00
61908;BME280;47864;52.526;19.672;2022-08-03T06:20:46;101243.66;;;20.86;100.00
61908;BME280;47864;52.526;19.672;2022-08-03T06:22:50;101249.69;;;20.88;100.00
61908;BME280;47864;52.526;19.672;2022-08-03T06:25:01;101252.69;;;21.20;100.00
61908;BME280;47864;52.526;19.672;2022-08-03T06:27:05;101246.03;;;21.16;100.00
61908;BME280;47864;52.526;19.672;2022-08-03T06:29:07;101262.91;;;21.38;100.00
61908;BME280;47864;52.526;19.672;2022-08-03T06:31:10;101228.81;;;21.17;100.00
61908;BME280;47864;52.526;19.672;2022-08-03T06:33:12;101256.66;;;21.37;100.00
61908;BME280;47864;52.526;19.672;2022-08-03T06:35:14;101260.00;;;21.39;100.00
61908;BME280;47864;52.526;19.672;2022-08-03T06:37:15;101226.69;;;21.12;100.00
61908;BME280;47864;52.526;19.672;2022-08-03T06:39:17;101246.06;;;21.36;100.00
61908;BME280;47864;52.526;19.672;2022-08-03T06:41:19;101251.06;;;21.52;100.00
61908;BME280;47864;52.526;19.672;2022-08-03T06:43:21;101248.19;;;21.53;100.00
61908;BME280;47864;52.526;19.672;2022-08-03T06:45:23;101253.16;;;21.76;100.00
61908;BME280;47864;52.526;19.672;2022-08-03T06:47:32;101257.94;;;21.94;100.00
61908;BME280;47864;52.526;19.672;2022-08-03T06:49:34;101255.41;;;22.32;100.00
61908;BME280;47864;52.526;19.672;2022-08-03T06:51:36;101259.50;;;22.54;99.15
61908;BME280;47864;52.526;19.672;2022-08-03T06:53:58;101243.06;;;23.07;93.25
61908;BME280;47864;52.526;19.672;2022-08-03T06:55:59;101258.94;;;23.66;88.25
61908;BME280;47864;52.526;19.672;2022-08-03T06:58:01;101251.41;;;23.93;84.12
61908;BME280;47864;52.526;19.672;2022-08-03T07:00:04;101259.69;;;24.78;82.19
61908;BME280;47864;52.526;19.672;2022-08-03T07:02:13;101263.19;;;25.45;76.69
61908;BME280;47864;52.526;19.672;2022-08-03T07:04:19;101254.03;;;25.81;73.28
61908;BME280;47864;52.526;19.672;2022-08-03T07:06:21;101267.53;;;26.10;69.94
61908;BME280;47864;52.526;19.672;2022-08-03T07:08:23;101264.25;;;26.72;68.78
61908;BME280;47864;52.526;19.672;2022-08-03T07:10:34;101258.09;;;27.16;62.00
61908;BME280;47864;52.526;19.672;2022-08-03T07:12:38;101258.59;;;27.92;58.59
61908;BME280;47864;52.526;19.672;2022-08-03T07:14:57;101268.56;;;27.86;58.32
61908;BME280;47864;52.526;19.672;2022-08-03T07:17:03;101270.69;;;27.06;56.82
61908;BME280;47864;52.526;19.672;2022-08-03T07:19:12;101268.16;;;27.16;57.78
61908;BME280;47864;52.526;19.672;2022-08-03T07:21:14;101266.03;;;27.51;56.51
61908;BME280;47864;52.526;19.672;2022-08-03T07:23:15;101265.91;;;27.41;57.90
61908;BME280;47864;52.526;19.672;2022-08-03T07:25:19;101263.94;;;28.03;58.62
61908;BME280;47864;52.526;19.672;2022-08-03T07:27:21;101268.81;;;28.18;54.11
61908;BME280;47864;52.526;19.672;2022-08-03T07:29:23;101259.47;;;28.53;51.66
61908;BME280;47864;52.526;19.672;2022-08-03T07:31:25;101266.91;;;28.57;49.60
61908;BME280;47864;52.526;19.672;2022-08-03T07:33:34;101247.72;;;28.96;48.82
61908;BME280;47864;52.526;19.672;2022-08-03T07:35:37;101256.19;;;28.99;46.20
61908;BME280;47864;52.526;19.672;2022-08-03T07:37:39;101249.63;;;29.49;43.53
61908;BME280;47864;52.526;19.672;2022-08-03T07:39:54;101254.13;;;29.06;43.51
61908;BME280;47864;52.526;19.672;2022-08-03T07:41:56;101265.66;;;29.13;43.72
61908;BME280;47864;52.526;19.672;2022-08-03T07:43:58;101253.25;;;28.57;44.98
61908;BME280;47864;52.526;19.672;2022-08-03T07:46:01;101231.47;;;29.11;45.78
61908;BME280;47864;52.526;19.672;2022-08-03T07:48:03;101253.19;;;28.96;41.93
61908;BME280;47864;52.526;19.672;2022-08-03T07:50:12;101256.66;;;28.69;42.49
61908;BME280;47864;52.526;19.672;2022-08-03T07:52:14;101264.69;;;28.76;44.40
61908;BME280;47864;52.526;19.672;2022-08-03T07:54:16;101242.16;;;28.25;45.96
61908;BME280;47864;52.526;19.672;2022-08-03T07:56:18;101247.75;;;28.35;42.32
61908;BME280;47864;52.526;19.672;2022-08-03T07:58:19;101255.94;;;28.35;43.81
61908;BME280;47864;52.526;19.672;2022-08-03T08:00:24;101249.56;;;28.47;47.27
61908;BME280;47864;52.526;19.672;2022-08-03T08:02:26;101258.28;;;28.65;45.47
61908;BME280;47864;52.526;19.672;2022-08-03T08:04:28;101259.84;;;28.83;44.45
61908;BME280;47864;52.526;19.672;2022-08-03T08:06:30;101262.31;;;29.06;44.08
61908;BME280;47864;52.526;19.672;2022-08-03T08:08:32;101263.28;;;29.22;44.75
61908;BME280;47864;52.526;19.672;2022-08-03T08:10:34;101257.06;;;29.54;41.99
61908;BME280;47864;52.526;19.672;2022-08-03T08:12:37;101262.38;;;29.70;41.46
61908;BME280;47864;52.526;19.672;2022-08-03T08:14:39;101260.28;;;29.82;40.24
61908;BME280;47864;52.526;19.672;2022-08-03T08:16:41;101248.75;;;30.12;42.62
61908;BME280;47864;52.526;19.672;2022-08-03T08:18:43;101252.22;;;29.66;40.43
61908;BME280;47864;52.526;19.672;2022-08-03T08:20:45;101257.34;;;29.89;40.46
61908;BME280;47864;52.526;19.672;2022-08-03T08:22:47;101259.22;;;30.25;39.10
61908;BME280;47864;52.526;19.672;2022-08-03T08:24:50;101265.19;;;30.17;40.42
61908;BME280;47864;52.526;19.672;2022-08-03T08:26:52;101259.13;;;30.05;39.77
61908;BME280;47864;52.526;19.672;2022-08-03T08:28:54;101258.31;;;30.10;38.80
61908;BME280;47864;52.526;19.672;2022-08-03T08:30:56;101260.75;;;29.74;40.77
61908;BME280;47864;52.526;19.672;2022-08-03T08:32:58;101258.44;;;29.56;40.24
61908;BME280;47864;52.526;19.672;2022-08-03T08:35:00;101248.00;;;29.85;41.55
61908;BME280;47864;52.526;19.672;2022-08-03T08:37:02;101249.78;;;30.06;38.64
61908;BME280;47864;52.526;19.672;2022-08-03T08:39:04;101260.25;;;30.14;38.69
61908;BME280;47864;52.526;19.672;2022-08-03T08:41:06;101252.53;;;29.69;40.34
61908;BME280;47864;52.526;19.672;2022-08-03T08:43:08;101245.63;;;29.35;41.17
61908;BME280;47864;52.526;19.672;2022-08-03T08:45:10;101243.31;;;28.95;43.25
61908;BME280;47864;52.526;19.672;2022-08-03T08:47:13;101258.22;;;29.09;44.75
61908;BME280;47864;52.526;19.672;2022-08-03T08:49:17;101265.19;;;29.22;43.43
61908;BME280;47864;52.526;19.672;2022-08-03T08:51:27;101256.47;;;29.25;45.39
61908;BME280;47864;52.526;19.672;2022-08-03T08:53:52;101260.56;;;29.22;42.32
61908;BME280;47864;52.526;19.672;2022-08-03T08:55:57;101259.78;;;28.01;43.94
61908;BME280;47864;52.526;19.672;2022-08-03T08:58:04;101264.34;;;27.95;47.04
61908;BME280;47864;52.526;19.672;2022-08-03T09:00:08;101253.66;;;28.27;44.34
61908;BME280;47864;52.526;19.672;2022-08-03T09:02:10;101241.00;;;27.83;45.49
61908;BME280;47864;52.526;19.672;2022-08-03T09:04:13;101256.38;;;28.11;45.96
61908;BME280;47864;52.526;19.672;2022-08-03T09:06:15;101221.16;;;28.09;43.60
61908;BME280;47864;52.526;19.672;2022-08-03T09:08:17;101249.81;;;28.23;44.07
61908;BME280;47864;52.526;19.672;2022-08-03T09:10:19;101249.16;;;28.60;45.93
61908;BME280;47864;52.526;19.672;2022-08-03T09:12:21;101252.06;;;28.75;46.97
61908;BME280;47864;52.526;19.672;2022-08-03T09:14:42;101257.00;;;28.95;44.77
61908;BME280;47864;52.526;19.672;2022-08-03T09:17:04;101230.03;;;29.03;44.69
61908;BME280;47864;52.526;19.672;2022-08-03T09:19:11;101233.69;;;28.87;42.08
61908;BME280;47864;52.526;19.672;2022-08-03T09:21:22;101252.47;;;28.40;46.43
61908;BME280;47864;52.526;19.672;2022-08-03T09:23:48;101253.50;;;28.17;43.30
61908;BME280;47864;52.526;19.672;2022-08-03T09:26:04;101250.88;;;28.06;42.99
61908;BME280;47864;52.526;19.672;2022-08-03T09:28:14;101245.00;;;27.47;44.68
61908;BME280;47864;52.526;19.672;2022-08-03T09:30:38;101241.59;;;27.40;39.78
61908;BME280;47864;52.526;19.672;2022-08-03T09:32:40;101231.81;;;27.89;40.86
61908;BME280;47864;52.526;19.672;2022-08-03T09:34:42;101229.91;;;27.73;41.30
61908;BME280;47864;52.526;19.672;2022-08-03T09:36:45;101242.25;;;27.58;41.74
61908;BME280;47864;52.526;19.672;2022-08-03T09:39:11;101246.44;;;28.16;42.19
61908;BME280;47864;52.526;19.672;2022-08-03T09:41:17;101248.09;;;28.39;42.12
61908;BME280;47864;52.526;19.672;2022-08-03T09:43:19;101235.06;;;28.24;41.43
61908;BME280;47864;52.526;19.672;2022-08-03T09:45:25;101228.75;;;28.41;39.92
61908;BME280;47864;52.526;19.672;2022-08-03T09:47:29;101241.44;;;28.73;39.42
61908;BME280;47864;52.526;19.672;2022-08-03T09:49:31;101205.47;;;28.60;38.03
61908;BME280;47864;52.526;19.672;2022-08-03T09:51:33;101247.13;;;28.94;37.72
61908;BME280;47864;52.526;19.672;2022-08-03T09:53:55;101246.19;;;28.83;36.77
61908;BME280;47864;52.526;19.672;2022-08-03T09:56:01;101243.31;;;28.95;38.06
61908;BME280;47864;52.526;19.672;2022-08-03T09:58:25;101234.63;;;28.98;38.06
61908;BME280;47864;52.526;19.672;2022-08-03T10:00:27;101238.28;;;28.82;35.44
61908;BME280;47864;52.526;19.672;2022-08-03T10:02:29;101233.56;;;28.77;35.89
61908;BME280;47864;52.526;19.672;2022-08-03T10:04:31;101237.19;;;29.09;36.67
61908;BME280;47864;52.526;19.672;2022-08-03T10:06:33;101236.22;;;29.21;39.32
61908;BME280;47864;52.526;19.672;2022-08-03T10:08:34;101229.06;;;28.88;36.22
61908;BME280;47864;52.526;19.672;2022-08-03T10:10:43;101224.78;;;29.24;38.75
61908;BME280;47864;52.526;19.672;2022-08-03T10:12:45;101221.03;;;29.35;36.53
61908;BME280;47864;52.526;19.672;2022-08-03T10:14:47;101225.09;;;29.32;35.59
61908;BME280;47864;52.526;19.672;2022-08-03T10:16:49;101222.16;;;29.07;36.00
61908;BME280;47864;52.526;19.672;2022-08-03T10:18:51;101202.63;;;29.25;37.25
61908;BME280;47864;52.526;19.672;2022-08-03T10:20:58;101229.22;;;29.03;36.89
61908;BME280;47864;52.526;19.672;2022-08-03T10:23:04;101220.16;;;28.54;37.30
61908;BME280;47864;52.526;19.672;2022-08-03T10:25:08;101236.03;;;28.79;38.63
61908;BME280;47864;52.526;19.672;2022-08-03T10:27:10;101224.94;;;28.63;37.75
61908;BME280;47864;52.526;19.672;2022-08-03T10:29:20;101234.72;;;28.81;37.85
61908;BME280;47864;52.526;19.672;2022-08-03T10:31:23;101236.41;;;28.87;37.60
61908;BME280;47864;52.526;19.672;2022-08-03T10:33:27;101229.78;;;29.05;37.97
61908;BME280;47864;52.526;19.672;2022-08-03T10:35:55;101227.88;;;29.05;37.38
61908;BME280;47864;52.526;19.672;2022-08-03T10:38:02;101233.16;;;29.17;36.71
61908;BME280;47864;52.526;19.672;2022-08-03T10:40:07;101228.59;;;28.74;36.58
61908;BME280;47864;52.526;19.672;2022-08-03T10:42:10;101221.22;;;28.96;37.72
61908;BME280;47864;52.526;19.672;2022-08-03T10:44:19;101224.56;;;29.30;38.06
61908;BME280;47864;52.526;19.672;2022-08-03T10:46:22;101201.81;;;29.25;34.94